Time;durP1;ratioP1;P1;durP2;ratioP2;P2;SDS_P1;SDS_P2;PMS_P1;PMS_P2;Temp;Humidity;BMP_temperature;BMP_pressure;BME280_temperature;BME280_humidity;BME280_pressure;Samples;Min_cycle;Max_cycle;Signal;HPM_P1;HPM_P2
2023/10/16 00:00:47;;;;;;;5.12;1.30;;;;;;;11.64;55.37;100228.31;4412587;32;33363;-77
2023/10/16 00:03:17;;;;;;;4.75;1.40;;;;;;;11.17;56.70;100236.47;4426233;32;33036;-77
2023/10/16 00:05:45;;;;;;;4.97;1.60;;;;;;;11.50;55.36;100246.72;4425654;32;32746;-77
2023/10/16 00:08:16;;;;;;;8.10;1.63;;;;;;;11.45;55.79;100250.78;4430364;32;33771;-78
2023/10/16 00:11:03;;;;;;;3.85;1.50;;;;;;;11.37;55.97;100250.41;4424970;32;33368;-78
2023/10/16 00:13:31;;;;;;;4.00;1.50;;;;;;;11.39;55.78;100260.84;4423350;32;32584;-77
2023/10/16 00:16:02;;;;;;;6.60;1.70;;;;;;;11.31;55.74;100264.78;4426118;32;33243;-77
2023/10/16 00:18:36;;;;;;;5.45;1.55;;;;;;;11.41;55.57;100270.50;4433610;32;33193;-78
2023/10/16 00:21:05;;;;;;;5.10;1.60;;;;;;;11.70;54.90;100260.63;4431990;32;33743;-77
2023/10/16 00:23:39;;;;;;;4.27;1.60;;;;;;;11.71;54.63;100256.34;4428431;32;33199;-77
2023/10/16 00:26:10;;;;;;;4.80;1.45;;;;;;;11.52;54.55;100265.81;4430028;32;33058;-77
2023/10/16 00:28:44;;;;;;;5.43;1.83;;;;;;;11.53;54.66;100267.63;4431035;32;31825;-77
2023/10/16 00:31:20;;;;;;;4.78;1.73;;;;;;;11.51;55.35;100264.06;4434358;32;33179;-77
2023/10/16 00:33:50;;;;;;;4.37;1.40;;;;;;;11.72;54.77;100263.28;4426141;32;32573;-77
2023/10/16 00:36:18;;;;;;;4.50;1.60;;;;;;;11.79;54.69;100262.78;4431361;32;32781;-77
2023/10/16 00:38:51;;;;;;;3.50;1.40;;;;;;;11.70;55.08;100264.94;4423972;32;34481;-77
2023/10/16 00:41:24;;;;;;;4.60;1.60;;;;;;;11.46;55.67;100267.25;4428314;32;34084;-77
2023/10/16 00:43:52;;;;;;;4.60;1.87;;;;;;;11.57;54.78;100260.84;4419856;32;32957;-77
2023/10/16 00:46:30;;;;;;;3.83;1.60;;;;;;;11.83;54.37;100259.50;4435358;32;33857;-77
2023/10/16 00:48:58;;;;;;;4.67;1.50;;;;;;;11.67;54.65;100267.41;4426338;32;33674;-77
2023/10/16 00:51:27;;;;;;;4.77;1.70;;;;;;;11.80;54.05;100267.13;4427769;32;33844;-77
2023/10/16 00:54:18;;;;;;;4.18;1.73;;;;;;;11.55;54.73;100270.25;4416199;32;32132;-77
2023/10/16 00:56:49;;;;;;;4.40;1.60;;;;;;;11.86;54.11;100267.44;4430216;32;33730;-77
2023/10/16 00:59:17;;;;;;;4.53;1.70;;;;;;;11.53;54.69;100267.63;4426513;32;33738;-77
2023/10/16 01:01:45;;;;;;;3.97;1.67;;;;;;;11.86;53.85;100272.62;4428406;32;33534;-77
2023/10/16 01:04:14;;;;;;;5.60;2.00;;;;;;;11.84;53.58;100261.31;4425794;32;33300;-77
2023/10/16 01:06:44;;;;;;;4.82;1.80;;;;;;;11.56;54.58;100270.34;4430176;32;33475;-77
2023/10/16 01:09:25;;;;;;;5.97;1.73;;;;;;;11.84;53.72;100258.69;4433417;32;33244;-77
2023/10/16 01:11:57;;;;;;;5.28;1.50;;;;;;;11.95;53.21;100267.87;4424184;32;32984;-77
2023/10/16 01:14:25;;;;;;;3.53;1.40;;;;;;;11.94;52.79;100270.44;4433211;32;32900;-77
2023/10/16 01:16:54;;;;;;;4.37;1.37;;;;;;;11.92;52.88;100277.28;4424032;32;33788;-77
2023/10/16 01:19:23;;;;;;;4.85;1.58;;;;;;;11.39;54.28;100273.81;4422374;32;33598;-77
2023/10/16 01:21:50;;;;;;;4.45;1.58;;;;;;;11.56;53.93;100270.34;4433167;32;33827;-77
2023/10/16 01:24:21;;;;;;;4.57;1.50;;;;;;;11.33;54.30;100273.53;4427697;32;33708;-77
2023/10/16 01:26:48;;;;;;;3.80;1.30;;;;;;;11.50;53.92;100270.06;4422734;32;34423;-77
2023/10/16 01:29:16;;;;;;;4.40;1.33;;;;;;;11.54;53.72;100274.56;4422483;32;33782;-77
2023/10/16 01:31:44;;;;;;;4.30;1.33;;;;;;;11.53;53.61;100279.69;4433600;32;33889;-77
2023/10/16 01:34:12;;;;;;;3.53;1.10;;;;;;;11.34;53.98;100280.50;4427085;32;31763;-77
2023/10/16 01:36:45;;;;;;;3.53;1.10;;;;;;;11.29;53.57;100282.84;4425648;32;33663;-77
2023/10/16 01:42:04;;;;;;;4.72;1.15;;;;;;;10.93;54.84;100300.03;4422952;32;33721;-77
2023/10/16 01:44:32;;;;;;;3.30;1.10;;;;;;;10.96;54.54;100293.31;4427509;32;32643;-77
2023/10/16 01:47:03;;;;;;;4.53;1.37;;;;;;;11.15;53.99;100291.66;4430540;32;33391;-77
2023/10/16 01:49:30;;;;;;;3.43;1.17;;;;;;;11.10;54.13;100295.72;4426678;32;32732;-78
2023/10/16 01:51:58;;;;;;;5.53;1.50;;;;;;;11.15;53.78;100291.66;4425128;32;34424;-77
2023/10/16 01:54:25;;;;;;;2.95;1.08;;;;;;;11.10;53.78;100286.22;4432763;32;33752;-77
2023/10/16 01:56:53;;;;;;;3.33;1.15;;;;;;;11.26;53.31;100287.00;4422932;32;34516;-77
2023/10/16 01:59:21;;;;;;;3.53;1.10;;;;;;;11.01;54.01;100301.34;4426014;32;33749;-77
2023/10/16 02:01:49;;;;;;;3.47;1.30;;;;;;;10.86;54.15;100300.56;4428459;32;34465;-77
2023/10/16 02:04:19;;;;;;;3.15;1.30;;;;;;;11.17;53.21;100293.50;4430789;32;33179;-77
2023/10/16 02:06:48;;;;;;;3.33;1.30;;;;;;;10.89;53.80;100303.28;4414589;32;32766;-77
2023/10/16 02:09:23;;;;;;;4.82;1.30;;;;;;;10.91;53.75;100309.44;4432744;32;34399;-77
2023/10/16 02:11:52;;;;;;;4.28;1.27;;;;;;;10.98;53.63;100311.53;4423596;32;33349;-77
2023/10/16 02:14:20;;;;;;;3.97;1.17;;;;;;;10.83;53.98;100332.37;4428222;32;33058;-77
2023/10/16 02:16:48;;;;;;;3.80;1.20;;;;;;;11.03;53.40;100323.06;4429616;32;34371;-77
2023/10/16 02:19:16;;;;;;;3.95;1.17;;;;;;;10.89;53.99;100334.38;4434868;32;33759;-77
2023/10/16 02:21:44;;;;;;;4.18;1.42;;;;;;;11.19;52.85;100335.09;4423750;32;33726;-78
2023/10/16 02:24:12;;;;;;;2.85;1.30;;;;;;;10.87;53.80;100349.84;4430537;32;33754;-77
2023/10/16 02:26:55;;;;;;;3.67;1.30;;;;;;;10.90;53.59;100354.34;4426992;32;34417;-77
2023/10/16 02:29:24;;;;;;;5.07;1.45;;;;;;;11.01;53.15;100359.25;4424861;32;33218;-77
2023/10/16 02:31:52;;;;;;;3.43;1.20;;;;;;;11.17;52.98;100360.06;4432658;32;33782;-77
2023/10/16 02:34:22;;;;;;;5.47;1.60;;;;;;;11.19;53.04;100351.53;4427786;32;32980;-77
2023/10/16 02:36:51;;;;;;;4.45;1.27;;;;;;;11.15;52.93;100352.19;4425524;32;34179;-77
2023/10/16 02:39:38;;;;;;;4.97;1.60;;;;;;;11.10;53.02;100358.81;4434219;32;34517;-77
2023/10/16 02:42:08;;;;;;;8.18;1.52;;;;;;;11.13;52.94;100351.22;4417086;32;32888;-77
2023/10/16 02:44:39;;;;;;;3.92;1.40;;;;;;;10.80;53.79;100353.84;4427155;32;32839;-77
2023/10/16 02:47:12;;;;;;;3.67;1.20;;;;;;;11.10;53.04;100338.09;4429180;32;33711;-77
2023/10/16 02:49:47;;;;;;;3.47;1.23;;;;;;;10.86;53.95;100342.03;4423532;32;33397;-77
2023/10/16 02:52:19;;;;;;;3.47;1.40;;;;;;;10.96;53.67;100339.97;4433770;32;33215;-77
2023/10/16 02:54:47;;;;;;;3.03;1.23;;;;;;;10.91;53.70;100335.34;4430408;32;33422;-77
2023/10/16 02:57:15;;;;;;;3.70;1.12;;;;;;;10.79;54.13;100333.91;4426975;32;34373;-77
2023/10/16 02:59:43;;;;;;;3.62;1.40;;;;;;;10.93;53.76;100342.44;4426288;32;34566;-77
2023/10/16 03:02:23;;;;;;;3.65;1.15;;;;;;;10.84;54.00;100338.47;4420560;32;33779;-77
2023/10/16 03:04:51;;;;;;;4.15;1.20;;;;;;;10.93;53.70;100345.03;4429944;32;32337;-77
2023/10/16 03:07:22;;;;;;;3.15;1.30;;;;;;;10.87;53.94;100351.56;4429375;32;34840;-77
2023/10/16 03:09:51;;;;;;;5.15;1.30;;;;;;;10.86;53.93;100361.06;4417548;32;34113;-77
2023/10/16 03:12:21;;;;;;;3.37;1.27;;;;;;;10.84;53.95;100364.38;4432758;32;34391;-77
2023/10/16 03:14:57;;;;;;;4.75;1.33;;;;;;;10.63;54.66;100368.50;4427604;32;32868;-77
2023/10/16 03:19:58;;;;;;;3.22;1.60;;;;;;;10.70;54.39;100377.50;4431568;32;34219;-77
2023/10/16 03:22:26;;;;;;;3.03;1.30;;;;;;;10.78;54.23;100381.38;4427696;32;34389;-77
2023/10/16 03:24:55;;;;;;;3.10;1.27;;;;;;;10.75;54.46;100381.19;4424946;32;32872;-77
2023/10/16 03:27:28;;;;;;;5.28;1.60;;;;;;;10.72;54.67;100370.69;4427673;32;33535;-77
2023/10/16 03:29:57;;;;;;;3.37;1.30;;;;;;;10.56;55.31;100373.25;4431527;32;33235;-77
2023/10/16 03:32:33;;;;;;;3.87;1.50;;;;;;;10.43;55.91;100367.44;4430756;32;33351;-77
2023/10/16 03:35:05;;;;;;;4.68;1.48;;;;;;;10.53;55.43;100373.09;4396248;32;31008;-77
2023/10/16 03:37:35;;;;;;;3.55;1.50;;;;;;;10.40;55.86;100381.91;4430291;32;34098;-77
2023/10/16 03:40:11;;;;;;;3.42;1.65;;;;;;;10.29;56.03;100391.62;4411048;32;34502;-77
2023/10/16 03:42:43;;;;;;;4.55;1.50;;;;;;;10.57;55.23;100395.78;4425934;32;33680;-77
2023/10/16 03:45:13;;;;;;;3.83;1.70;;;;;;;10.48;55.64;100397.84;4421943;32;33174;-77
2023/10/16 03:47:42;;;;;;;4.57;2.05;;;;;;;10.12;56.65;100402.75;4426638;32;33585;-77
2023/10/16 03:50:10;;;;;;;5.05;2.35;;;;;;;10.10;56.67;100404.34;4425872;32;34337;-77
2023/10/16 03:52:38;;;;;;;4.75;1.80;;;;;;;10.19;56.51;100407.47;4427291;32;33655;-77
2023/10/16 03:55:22;;;;;;;4.37;1.58;;;;;;;10.31;55.98;100408.16;4426361;32;32835;-77
2023/10/16 03:57:57;;;;;;;4.70;1.73;;;;;;;10.22;56.18;100407.66;4424511;32;33767;-77
2023/10/16 04:00:43;;;;;;;4.37;1.67;;;;;;;10.55;55.60;100407.75;4430630;32;33572;-77
2023/10/16 04:03:11;;;;;;;5.00;2.37;;;;;;;10.55;55.14;100402.56;4426505;32;32996;-76
2023/10/16 04:05:48;;;;;;;3.30;1.73;;;;;;;10.75;54.83;100401.94;4419114;32;34533;-77
2023/10/16 04:08:23;;;;;;;4.05;1.58;;;;;;;10.67;54.90;100402.34;4429297;32;33162;-77
2023/10/16 04:10:53;;;;;;;3.97;1.70;;;;;;;10.77;54.56;100400.31;4428525;32;33349;-77
2023/10/16 04:13:27;;;;;;;4.18;1.73;;;;;;;10.57;54.86;100396.66;4423558;32;32420;-77
2023/10/16 04:18:33;;;;;;;3.65;1.60;;;;;;;10.34;55.45;100395.41;4426035;32;33315;-76
2023/10/16 04:21:37;;;;;;;4.12;1.77;;;;;;;10.39;55.41;100400.81;4411167;32;33666;-77
2023/10/16 04:26:29;;;;;;;4.90;1.80;;;;;;;10.09;56.49;100384.47;4431335;32;33184;-77
2023/10/16 04:31:55;;;;;;;4.12;1.80;;;;;;;9.74;57.69;100380.78;4425050;32;33578;-77
2023/10/16 04:40:28;;;;;;;4.47;2.00;;;;;;;9.79;57.89;100381.91;4424809;32;32255;-77
2023/10/16 04:50:49;;;;;;;3.85;1.85;;;;;;;9.65;58.05;100387.19;4430230;32;32935;-77
2023/10/16 04:53:25;;;;;;;4.95;2.00;;;;;;;9.71;58.05;100385.75;4424071;32;32541;-76
2023/10/16 04:55:54;;;;;;;3.37;1.87;;;;;;;9.59;58.50;100391.12;4422557;32;33371;-77
2023/10/16 05:00:57;;;;;;;4.93;2.12;;;;;;;9.68;58.18;100385.56;4431278;32;33387;-77
2023/10/16 05:06:56;;;;;;;6.17;2.00;;;;;;;9.43;59.29;100389.34;4422225;32;32994;-77
2023/10/16 05:14:22;;;;;;;4.55;2.00;;;;;;;9.39;59.66;100392.56;4430374;32;33172;-76
2023/10/16 06:15:07;;;;;;;5.28;2.33;;;;;;;9.17;61.26;100458.47;4427412;32;32252;-79
2023/10/16 06:17:37;;;;;;;5.28;2.10;;;;;;;9.25;61.22;100465.00;4431037;32;33684;-77
2023/10/16 06:20:09;;;;;;;4.45;2.10;;;;;;;9.28;61.10;100466.88;4427500;32;32871;-77
2023/10/16 06:22:36;;;;;;;3.42;1.90;;;;;;;9.20;60.97;100469.00;4426575;32;34177;-77
2023/10/16 06:25:10;;;;;;;4.07;1.80;;;;;;;9.21;61.00;100465.62;4429286;32;33397;-77
2023/10/16 06:27:41;;;;;;;4.40;1.90;;;;;;;9.05;61.27;100473.22;4430546;32;33421;-77
2023/10/16 06:30:18;;;;;;;5.07;2.00;;;;;;;9.10;61.19;100476.09;4426381;32;33531;-77
2023/10/16 06:32:49;;;;;;;4.57;2.00;;;;;;;9.18;61.03;100470.59;4426890;32;31761;-77
2023/10/16 06:35:17;;;;;;;3.97;1.98;;;;;;;8.99;61.67;100472.84;4426810;32;33855;-78
2023/10/16 06:37:54;;;;;;;5.25;2.03;;;;;;;9.23;61.11;100474.37;4429179;32;36006;-78
2023/10/16 06:40:24;;;;;;;5.47;2.03;;;;;;;9.39;60.60;100480.47;4424250;32;33604;-77
2023/10/16 06:43:13;;;;;;;4.97;2.03;;;;;;;9.45;60.36;100467.91;4423343;32;33748;-76
2023/10/16 06:45:41;;;;;;;4.82;2.10;;;;;;;9.27;60.68;100469.38;4422503;32;32562;-75
2023/10/16 06:48:14;;;;;;;4.85;1.90;;;;;;;9.41;60.42;100478.88;4425649;32;33863;-77
2023/10/16 06:50:53;;;;;;;4.68;1.73;;;;;;;9.69;59.77;100488.25;4429083;32;33506;-77
2023/10/16 06:53:24;;;;;;;4.60;2.40;;;;;;;9.45;60.39;100496.34;4422583;32;32731;-76
2023/10/16 06:55:52;;;;;;;3.97;2.12;;;;;;;9.65;59.61;100501.00;4423965;32;33098;-79
2023/10/16 06:58:21;;;;;;;5.32;2.17;;;;;;;9.68;59.51;100504.56;4428405;32;33734;-77
2023/10/16 07:00:52;;;;;;;5.53;2.17;;;;;;;9.90;59.04;100507.63;4430540;32;34504;-77
2023/10/16 07:03:20;;;;;;;4.47;2.05;;;;;;;9.91;59.19;100514.59;4423024;32;33352;-77
2023/10/16 07:05:48;;;;;;;4.62;1.87;;;;;;;10.17;58.01;100517.81;4432223;32;32919;-77
2023/10/16 07:08:20;;;;;;;4.93;2.00;;;;;;;10.20;57.98;100518.00;4431618;32;34559;-78
2023/10/16 07:10:55;;;;;;;5.05;2.20;;;;;;;10.20;58.08;100521.47;4416536;32;32536;-77
2023/10/16 07:13:31;;;;;;;4.00;2.05;;;;;;;10.42;57.56;100522.72;4417398;32;32239;-77
2023/10/16 07:16:00;;;;;;;5.22;1.92;;;;;;;10.30;57.58;100525.50;4422180;32;32931;-78
2023/10/16 07:18:33;;;;;;;5.30;2.00;;;;;;;10.36;57.29;100528.44;4407602;32;33617;-77
2023/10/16 07:23:34;;;;;;;4.22;2.00;;;;;;;10.64;56.88;100527.41;4432526;32;33146;-78
2023/10/16 07:26:09;;;;;;;5.55;2.10;;;;;;;10.46;56.79;100526.38;4421087;32;33598;-78
2023/10/16 07:28:38;;;;;;;4.80;2.20;;;;;;;10.76;56.42;100530.72;4396367;32;31656;-78
2023/10/16 07:31:10;;;;;;;5.20;2.13;;;;;;;10.68;56.84;100533.66;4426149;32;32269;-78
2023/10/16 07:33:41;;;;;;;5.40;2.10;;;;;;;10.63;56.70;100530.81;4408627;32;32990;-78
2023/10/16 07:36:12;;;;;;;5.10;1.90;;;;;;;10.97;55.95;100522.31;4431015;32;33079;-77
2023/10/16 07:38:40;;;;;;;5.60;2.03;;;;;;;11.09;55.53;100528.19;4411433;32;33563;-77
2023/10/16 07:41:18;;;;;;;5.07;2.00;;;;;;;11.01;55.85;100529.47;4410411;32;33496;-78
2023/10/16 07:43:46;;;;;;;3.65;1.77;;;;;;;11.09;55.52;100535.97;4421990;32;33156;-78
2023/10/16 07:46:27;;;;;;;4.37;1.60;;;;;;;11.48;53.98;100549.28;4432426;32;32799;-78
2023/10/16 07:49:01;;;;;;;4.05;1.60;;;;;;;11.63;53.84;100549.19;4422188;32;34092;-78
2023/10/16 07:51:30;;;;;;;4.47;2.10;;;;;;;11.59;53.58;100558.53;4424464;32;32966;-79
2023/10/16 07:54:00;;;;;;;4.95;2.15;;;;;;;11.69;53.60;100556.41;4401535;32;32456;-78
2023/10/16 07:56:32;;;;;;;4.20;1.70;;;;;;;11.53;53.72;100553.03;4427878;32;33122;-78
2023/10/16 07:59:08;;;;;;;3.80;1.67;;;;;;;12.06;52.37;100555.75;4424733;32;33736;-78
2023/10/16 08:01:43;;;;;;;4.75;1.70;;;;;;;12.08;51.41;100559.31;4424452;32;33253;-78
2023/10/16 08:07:04;;;;;;;3.70;1.50;;;;;;;12.05;51.37;100553.94;4409468;32;32604;-78
2023/10/16 08:12:18;;;;;;;3.65;1.50;;;;;;;12.28;50.35;100542.13;4423287;32;33127;-78
2023/10/16 08:14:47;;;;;;;3.10;1.50;;;;;;;12.06;51.05;100550.56;4430929;32;33093;-77
2023/10/16 08:17:14;;;;;;;4.80;1.35;;;;;;;11.87;51.21;100552.16;4411184;32;34669;-78
2023/10/16 08:19:44;;;;;;;3.33;1.50;;;;;;;12.24;50.65;100535.87;4434708;32;33545;-78
2023/10/16 08:22:13;;;;;;;4.55;1.50;;;;;;;12.37;50.14;100538.28;4423017;32;34382;-78
2023/10/16 08:24:58;;;;;;;3.60;1.53;;;;;;;12.34;49.96;100532.94;4430071;32;33497;-78
2023/10/16 08:27:47;;;;;;;4.23;1.40;;;;;;;12.37;50.21;100540.00;4433367;32;32683;-78
2023/10/16 08:30:19;;;;;;;4.42;1.48;;;;;;;12.44;49.78;100543.75;4424839;32;32955;-78
2023/10/16 08:35:19;;;;;;;3.45;1.20;;;;;;;13.01;47.93;100544.78;4435615;32;33487;-78
2023/10/16 08:37:56;;;;;;;3.50;1.40;;;;;;;13.27;47.87;100543.41;4424208;32;33324;-79
2023/10/16 08:40:32;;;;;;;4.03;1.33;;;;;;;13.51;46.65;100538.44;4429312;32;32591;-78
2023/10/16 08:43:07;;;;;;;3.60;1.30;;;;;;;13.66;45.84;100542.56;4426499;32;32802;-79
2023/10/16 08:45:44;;;;;;;3.87;1.02;;;;;;;13.64;45.33;100534.66;4432772;32;33890;-80
2023/10/16 08:48:17;;;;;;;3.33;1.30;;;;;;;13.23;45.22;100536.28;4434931;32;33316;-79
2023/10/16 08:50:57;;;;;;;3.58;1.30;;;;;;;13.25;44.93;100549.31;4420404;32;33064;-79
2023/10/16 08:53:30;;;;;;;4.60;1.30;;;;;;;13.37;44.98;100549.94;4433377;32;32770;-79
2023/10/16 08:56:07;;;;;;;4.12;1.25;;;;;;;13.77;44.75;100556.91;4425044;32;34626;-80
2023/10/16 08:58:44;;;;;;;3.20;1.10;;;;;;;13.94;43.38;100550.72;4426368;32;32832;-78
2023/10/16 09:01:16;;;;;;;3.80;1.20;;;;;;;14.06;43.23;100546.88;4426079;32;33041;-79
2023/10/16 09:03:57;;;;;;;5.25;1.20;;;;;;;14.18;43.08;100544.78;4414294;32;34070;-78
2023/10/16 09:06:25;;;;;;;2.21;0.99;;;;;;;14.04;42.16;100541.63;4407763;32;32676;-78
2023/10/16 09:08:54;;;;;;;3.53;1.10;;;;;;;13.78;42.58;100532.66;4429836;32;33601;-78
2023/10/16 09:11:24;;;;;;;6.37;1.90;;;;;;;13.89;42.41;100536.63;4426787;32;33450;-78
2023/10/16 09:13:53;;;;;;;4.81;1.39;;;;;;;15.61;64.34;100541.69;4411723;32;32646;-77
2023/10/16 09:16:23;;;;;;;7.47;1.70;;;;;;;15.73;46.31;100534.31;4426011;32;33626;-78
2023/10/16 09:18:57;;;;;;;2.45;0.93;;;;;;;16.40;55.62;100529.63;4430854;32;32762;-80
2023/10/16 09:21:28;;;;;;;3.94;1.16;;;;;;;16.05;38.51;100524.09;4426586;32;33128;-80
2023/10/16 09:24:00;;;;;;;3.65;0.98;;;;;;;15.57;39.04;100526.72;4398544;32;34140;-79
2023/10/16 09:26:37;;;;;;;3.53;1.00;;;;;;;15.40;38.83;100536.56;4415547;32;34215;-80
2023/10/16 09:29:13;;;;;;;4.87;0.93;;;;;;;15.17;39.12;100538.31;4425371;32;32188;-79
2023/10/16 09:31:47;;;;;;;3.48;1.00;;;;;;;15.35;38.62;100539.00;4433583;32;33998;-79
2023/10/16 09:34:27;;;;;;;2.83;0.87;;;;;;;15.37;38.28;100541.66;4422072;32;33798;-80
2023/10/16 09:39:46;;;;;;;2.60;0.75;;;;;;;15.09;38.24;100538.03;4428690;32;32513;-81
2023/10/16 09:42:14;;;;;;;5.45;0.90;;;;;;;14.82;38.05;100530.03;4426524;32;32288;-81
2023/10/16 09:44:56;;;;;;;3.65;0.90;;;;;;;15.06;38.25;100530.94;4406097;32;33841;-81
2023/10/16 09:47:30;;;;;;;4.05;0.90;;;;;;;15.25;38.31;100529.06;4430954;32;33193;-80
2023/10/16 09:49:59;;;;;;;4.00;0.90;;;;;;;15.42;37.82;100530.56;4424619;32;33033;-81
2023/10/16 09:52:32;;;;;;;45.17;4.03;;;;;;;15.37;37.37;100521.66;4426764;32;33436;-80
2023/10/16 09:55:00;;;;;;;5.93;1.20;;;;;;;15.25;38.50;100500.34;4409080;32;33657;-80
2023/10/16 09:57:30;;;;;;;7.15;1.27;;;;;;;15.37;38.39;100510.34;4427329;32;33431;-80
2023/10/16 10:02:51;;;;;;;7.43;1.42;;;;;;;15.53;38.31;100500.53;4427597;32;32790;-80
2023/10/16 10:05:31;;;;;;;4.15;1.40;;;;;;;15.74;38.49;100502.13;4420536;32;33308;-81
2023/10/16 10:08:03;;;;;;;5.75;1.80;;;;;;;15.67;37.98;100505.34;4430650;32;33695;-81
2023/10/16 10:13:15;;;;;;;5.82;2.40;;;;;;;15.80;37.73;100502.38;4412038;32;34415;-80
2023/10/16 10:15:48;;;;;;;3.55;1.45;;;;;;;15.76;38.46;100495.25;4411703;32;33485;-80
2023/10/16 10:18:32;;;;;;;4.18;1.30;;;;;;;15.90;38.51;100496.62;4425979;32;33073;-80
2023/10/16 10:21:11;;;;;;;4.95;1.40;;;;;;;15.67;38.81;100489.69;4422834;32;32910;-80
2023/10/16 10:23:43;;;;;;;3.75;1.30;;;;;;;15.86;38.53;100502.56;4417020;32;33048;-81
2023/10/16 10:26:15;;;;;;;3.92;1.10;;;;;;;15.77;38.20;100501.37;4406728;32;33596;-79
2023/10/16 10:28:45;;;;;;;4.87;1.20;;;;;;;16.03;37.72;100489.19;4407711;32;33014;-79
2023/10/16 10:31:13;;;;;;;4.47;1.33;;;;;;;15.92;37.67;100491.44;4416827;32;33071;-79
2023/10/16 10:33:43;;;;;;;4.85;1.40;;;;;;;15.48;38.47;100483.78;4415657;32;32785;-80
2023/10/16 10:36:39;;;;;;;3.35;1.35;;;;;;;15.58;38.84;100491.97;4416467;32;34158;-80
2023/10/16 10:39:25;;;;;;;4.00;1.30;;;;;;;16.14;37.99;100482.59;4403363;32;31497;-80
2023/10/16 10:42:03;;;;;;;3.07;1.20;;;;;;;16.35;38.12;100468.47;4401454;32;32153;-80
2023/10/16 10:44:37;;;;;;;3.30;1.20;;;;;;;16.49;37.50;100459.31;4416695;32;32776;-80
2023/10/16 10:47:30;;;;;;;4.10;1.20;;;;;;;16.62;37.28;100469.31;4415908;32;33008;-80
2023/10/16 10:50:12;;;;;;;3.55;1.20;;;;;;;16.47;37.11;100455.75;4415881;32;33324;-81
2023/10/16 10:52:41;;;;;;;4.05;1.45;;;;;;;16.40;36.50;100451.16;4421311;32;32655;-80
2023/10/16 10:55:19;;;;;;;3.50;1.10;;;;;;;16.17;36.67;100439.97;4418947;32;32690;-80
2023/10/16 10:58:11;;;;;;;3.92;1.25;;;;;;;16.54;36.02;100436.81;4403477;32;33049;-80
2023/10/16 11:00:49;;;;;;;3.28;1.10;;;;;;;16.87;35.92;100436.09;4406027;32;32588;-80
2023/10/16 11:03:30;;;;;;;3.58;1.12;;;;;;;16.94;35.75;100438.06;4416496;32;32086;-80
2023/10/16 11:05:58;;;;;;;5.40;1.20;;;;;;;16.96;35.22;100432.84;4419736;32;33002;-80
2023/10/16 11:08:31;;;;;;;4.32;1.48;;;;;;;17.04;35.41;100424.38;4396490;32;808800;-80
2023/10/16 11:11:03;;;;;;;4.90;1.37;;;;;;;17.04;35.83;100424.38;4404309;32;32162;-80
2023/10/16 11:13:31;;;;;;;3.53;1.10;;;;;;;17.36;35.75;100424.38;4409274;32;32895;-80
2023/10/16 11:16:00;;;;;;;5.28;1.17;;;;;;;17.18;34.98;100437.84;4413680;32;33655;-81
2023/10/16 11:18:30;;;;;;;7.62;2.25;;;;;;;17.21;34.06;100431.81;4414272;32;33355;-80
2023/10/16 11:21:04;;;;;;;3.42;1.10;;;;;;;17.61;34.24;100428.53;4416895;32;33607;-80
2023/10/16 11:23:38;;;;;;;4.78;0.90;;;;;;;17.47;34.46;100425.56;4417022;32;31227;-80
2023/10/16 11:26:06;;;;;;;5.53;1.10;;;;;;;17.67;34.00;100415.63;4417285;32;33468;-80
2023/10/16 11:28:37;;;;;;;3.87;1.02;;;;;;;17.49;33.19;100408.16;4406483;32;32886;-80
2023/10/16 11:31:09;;;;;;;3.60;1.00;;;;;;;17.43;33.49;100418.47;4406698;32;33131;-80
2023/10/16 11:34:00;;;;;;;15.80;5.82;;;;;;;17.27;32.96;100421.53;4417639;32;32950;-78
2023/10/16 11:36:29;;;;;;;4.32;1.35;;;;;;;17.22;33.30;100418.75;4416081;32;32924;-79
2023/10/16 11:39:07;;;;;;;3.95;1.33;;;;;;;17.20;33.70;100414.34;4410221;32;33844;-79
2023/10/16 11:41:36;;;;;;;3.57;1.07;;;;;;;17.31;33.59;100412.91;4410052;32;33073;-79
2023/10/16 11:44:15;;;;;;;2.75;1.15;;;;;;;17.28;34.12;100415.44;4417874;32;33958;-79
2023/10/16 11:46:46;;;;;;;5.57;1.42;;;;;;;17.41;33.45;100414.91;4403643;32;32791;-80
2023/10/16 11:49:22;;;;;;;4.15;1.10;;;;;;;17.38;33.99;100414.81;4405754;32;34302;-80
2023/10/16 11:51:57;;;;;;;3.46;1.20;;;;;;;17.36;33.76;100411.28;4415837;32;32180;-79
2023/10/16 11:54:28;;;;;;;3.50;1.02;;;;;;;17.51;34.30;100404.69;4415264;32;33325;-79
2023/10/16 11:56:59;;;;;;;3.65;0.98;;;;;;;17.43;33.94;100408.00;4414231;32;32629;-79
2023/10/16 11:59:28;;;;;;;3.90;1.20;;;;;;;17.66;33.03;100394.62;4416534;32;33194;-78
2023/10/16 12:01:59;;;;;;;3.80;1.30;;;;;;;17.75;32.35;100402.72;4415607;32;33992;-79
2023/10/16 12:04:49;;;;;;;3.50;1.33;;;;;;;17.75;33.13;100397.47;4416312;32;32190;-79
2023/10/16 12:07:17;;;;;;;2.75;0.85;;;;;;;18.10;33.07;100396.56;4419265;32;32527;-79
2023/10/16 12:09:48;;;;;;;3.03;1.00;;;;;;;17.60;31.58;100399.69;4430878;32;33764;-79
2023/10/16 12:12:19;;;;;;;3.25;1.10;;;;;;;17.85;32.17;100396.00;4430792;32;33583;-78
2023/10/16 12:14:48;;;;;;;3.55;1.12;;;;;;;18.12;31.66;100402.72;4431384;32;33741;-79
2023/10/16 12:17:19;;;;;;;4.28;1.10;;;;;;;17.74;31.93;100403.56;4431612;32;33674;-79
2023/10/16 12:19:47;;;;;;;3.05;0.80;;;;;;;17.61;32.13;100401.47;4422820;32;33473;-79
2023/10/16 12:22:20;;;;;;;2.72;0.95;;;;;;;17.93;31.63;100386.59;4428264;32;33819;-78
2023/10/16 12:24:49;;;;;;;3.58;1.30;;;;;;;18.34;30.96;100391.03;4425691;32;32910;-78
2023/10/16 12:27:17;;;;;;;3.47;1.10;;;;;;;18.17;32.14;100394.13;4424306;32;33724;-78
2023/10/16 12:29:45;;;;;;;2.50;0.93;;;;;;;17.94;31.36;100390.09;4409646;32;33110;-80
2023/10/16 12:32:13;;;;;;;2.57;0.90;;;;;;;17.90;31.39;100394.34;4424499;32;33542;-80
2023/10/16 12:34:41;;;;;;;2.58;1.00;;;;;;;17.90;31.33;100394.34;4406565;32;32995;-81
2023/10/16 12:37:09;;;;;;;2.78;1.00;;;;;;;18.03;31.49;100385.06;4424181;32;33321;-80
2023/10/16 12:39:45;;;;;;;4.00;1.20;;;;;;;18.37;30.93;100393.69;4432015;32;33673;-79
2023/10/16 12:42:15;;;;;;;3.55;1.12;;;;;;;18.38;31.44;100393.75;4406496;32;31544;-81
2023/10/16 12:44:43;;;;;;;3.22;1.15;;;;;;;18.07;31.37;100392.16;4419542;32;34043;-80
2023/10/16 12:47:14;;;;;;;2.28;0.90;;;;;;;18.18;32.04;100385.44;4426490;32;33627;-78
2023/10/16 12:50:04;;;;;;;3.85;1.08;;;;;;;18.37;31.07;100385.84;4423756;32;32877;-80
2023/10/16 12:52:32;;;;;;;14.13;6.25;;;;;;;18.46;30.22;100386.03;4425190;32;33565;-80
2023/10/16 12:55:01;;;;;;;3.72;1.05;;;;;;;18.34;30.61;100388.41;4430024;32;33051;-80
2023/10/16 12:57:30;;;;;;;2.72;0.82;;;;;;;18.24;30.72;100390.81;4422362;32;33487;-81
2023/10/16 12:59:58;;;;;;;3.60;1.10;;;;;;;18.38;30.93;100393.75;4431968;32;33744;-81
2023/10/16 13:02:25;;;;;;;2.70;0.90;;;;;;;18.28;30.63;100392.66;4428299;32;34289;-80
2023/10/16 13:04:55;;;;;;;2.30;1.02;;;;;;;18.22;31.03;100389.87;4426121;32;33341;-82
2023/10/16 13:07:25;;;;;;;3.78;1.08;;;;;;;18.54;30.02;100384.47;4424682;32;34098;-79
2023/10/16 13:10:14;;;;;;;4.18;1.05;;;;;;;18.77;29.62;100381.47;4429519;32;33703;-79
2023/10/16 13:12:45;;;;;;;2.70;0.90;;;;;;;19.10;29.83;100375.16;4423507;32;33431;-78
2023/10/16 13:15:15;;;;;;;2.97;0.85;;;;;;;18.96;29.94;100383.63;4436435;32;32998;-79
2023/10/16 13:17:48;;;;;;;3.28;1.02;;;;;;;18.75;29.98;100378.78;4422699;32;34067;-79
2023/10/16 13:20:19;;;;;;;3.03;0.85;;;;;;;18.62;30.08;100377.66;4419635;32;33137;-79
2023/10/16 13:22:52;;;;;;;2.55;0.90;;;;;;;18.47;30.05;100387.84;4406335;32;32743;-80
2023/10/16 13:25:22;;;;;;;4.62;0.80;;;;;;;18.47;30.76;100378.22;4419623;32;33694;-80
2023/10/16 13:27:51;;;;;;;5.40;1.45;;;;;;;18.66;29.92;100384.75;4421474;32;33289;-79
2023/10/16 13:30:22;;;;;;;3.20;0.88;;;;;;;18.75;29.32;100373.53;4412396;32;31849;-78
2023/10/16 13:32:50;;;;;;;2.83;0.80;;;;;;;18.51;29.30;100373.94;4421225;32;33664;-78
2023/10/16 13:35:20;;;;;;;2.00;0.80;;;;;;;18.35;29.67;100366.56;4432941;32;33416;-78
2023/10/16 13:37:49;;;;;;;2.83;0.80;;;;;;;18.50;28.93;100377.38;4426503;32;33927;-79
2023/10/16 13:40:21;;;;;;;2.50;0.80;;;;;;;18.59;30.30;100382.84;4404485;32;33711;-79
2023/10/16 13:42:50;;;;;;;4.70;0.90;;;;;;;18.88;29.54;100379.97;4419421;32;32948;-82
2023/10/16 13:45:19;;;;;;;2.78;0.70;;;;;;;18.93;29.12;100372.19;4420112;32;34361;-81